• Join FlightAware (Why Join?)
  • Login
  • US Flag 
05:56PM EST


 

Airport Tracker/Info


-or-


 

Live Flight TrackerFlight Track Log ✈ TAM3542 ✈ 26-Jul-2013 ✈ SBBR / BSB - SBEG / MAO

Flight Track Log - Related Links

Times and Time Zones

All times are in EDT time to prevent confusion due to time zone crossing. See the TAM3542 flight status page for this flight to view local times or setup timezone preferences in your user account.

Time Position Orientation Groundspeed Altitude Reporting Facility
EDT Latitude Longitude Course Direction KTS MPH feet Rate Location/Type
08:40PM -15.8710 -47.9170 84° East 24 28  Level FlightAware
08:41PM -15.8700 -47.9140 71° East 26 30 420 Level FlightAware
08:42PM -15.8670 -47.9160 327° Northwest 28 32 420 Level FlightAware
08:42PM -15.8650 -47.9160 360° North 27 31 480 Level FlightAware
08:43PM -15.8640 -47.9200 285° West 29 33 480 Level FlightAware
08:43PM -15.8650 -47.9210 224° Southwest 15 17 540 Level FlightAware
08:44PM -15.8650 -47.9240 270° West 33 38 540 Level FlightAware
08:45PM -15.8650 -47.9260 270° West 32 37 660 Level FlightAware
08:45PM -15.8660 -47.9270 224° Southwest 15 17 720 Level FlightAware
08:46PM -15.8650 -47.9280 316° Northwest 22 25 720 Level FlightAware
08:48PM -15.7301 -48.0641 316° Northwest  Level Estimated
08:49PM -15.6515 -48.1433 316° Northwest  Level Estimated
08:50PM -15.5728 -48.2224 316° Northwest  Level Estimated
08:50PM -15.8630 -47.9230 316° Northwest 88 101  Level FlightAware
08:50PM -15.8620 -47.9050 87° East 175 201 4,620 Level FlightAware
08:51PM -15.8610 -47.8780 88° East 168 193 4,600 5,280 Climbing FlightAware
08:51PM -15.8590 -47.8540 85° East 172 198 5,300 1,620 Climbing FlightAware
08:52PM -15.8590 -47.8440 90° East 173 199 5,700 1,680 Climbing FlightAware
08:52PM -15.8580 -47.8250 87° East 174 200 6,300 1,500 Climbing FlightAware
08:52PM -15.8530 -47.8030 77° East 179 206 7,000 1,200 Climbing FlightAware
08:53PM -15.8440 -47.7970 33° Northeast 194 223 7,100 720 Climbing FlightAware
08:53PM -15.8170 -47.7920 10° North 227 261 7,500 780 Climbing FlightAware
08:54PM -15.7800 -47.7860 North 271 312 7,900 1,140 Climbing FlightAware
08:54PM -15.7540 -47.7830 North 288 331 8,500 2,220 Climbing FlightAware
08:54PM -15.7180 -47.7880 352° North 296 341 9,700 2,520 Climbing FlightAware
08:55PM -15.7050 -47.7990 321° Northwest 294 338 10,200 1,500 Climbing FlightAware
08:55PM -15.6670 -47.8480 309° West 334 384 11,100 1,500 Climbing FlightAware
08:56PM -15.6220 -47.9050 309° West 356 410 12,400 1,860 Climbing FlightAware
08:57PM -15.5800 -47.9570 310° West 368 423 13,700 1,920 Climbing FlightAware
08:57PM -15.5330 -48.0160 310° West 375 432 15,100 1,860 Climbing FlightAware
08:58PM -15.4900 -48.0700 310° West 382 440 16,300 1,080 Climbing FlightAware
08:59PM -15.4280 -48.1480 310° West 385 443 16,900 480 Climbing FlightAware
09:02PM -15.2421 -48.3380 315° West  Level Estimated
09:03PM -15.1640 -48.4175 315° West  Level Estimated
09:04PM -15.0859 -48.4971 315° West  Level Estimated
09:05PM -15.0078 -48.5766 315° West  Level Estimated
09:06PM -14.9297 -48.6560 316° Northwest  Level Estimated
09:07PM -14.8515 -48.7354 316° Northwest  Level Estimated
09:08PM -14.7652 -48.8229 316° Northwest  Level Estimated
09:09PM -14.6789 -48.9103 316° Northwest  Level Estimated
09:10PM -14.5925 -48.9977 316° Northwest  Level Estimated
09:11PM -14.5061 -49.0850 316° Northwest  Level Estimated
09:12PM -14.4197 -49.1722 316° Northwest  Level Estimated
09:13PM -14.3333 -49.2594 316° Northwest  Level Estimated
09:14PM -14.2468 -49.3465 316° Northwest  Level Estimated
09:15PM -14.1603 -49.4335 316° Northwest  Level Estimated
09:16PM -14.0737 -49.5205 316° Northwest  Level Estimated
09:17PM -13.9871 -49.6074 316° Northwest  Level Estimated
09:18PM -13.9005 -49.6942 316° Northwest  Level Estimated
09:19PM -13.8139 -49.7810 316° Northwest  Level Estimated
09:20PM -13.7272 -49.8677 316° Northwest  Level Estimated
09:21PM -13.6405 -49.9543 316° Northwest  Level Estimated
09:22PM -13.5538 -50.0409 316° Northwest  Level Estimated
09:23PM -13.4670 -50.1274 316° Northwest  Level Estimated
09:24PM -13.3802 -50.2139 316° Northwest  Level Estimated
09:25PM -13.2934 -50.3003 316° Northwest  Level Estimated
09:26PM -13.2066 -50.3866 316° Northwest  Level Estimated
09:27PM -13.1197 -50.4729 316° Northwest  Level Estimated
09:28PM -13.0328 -50.5591 316° Northwest  Level Estimated
09:29PM -12.9458 -50.6452 316° Northwest  Level Estimated
09:30PM -12.8589 -50.7313 316° Northwest  Level Estimated
09:31PM -12.7719 -50.8174 316° Northwest  Level Estimated
09:32PM -12.6849 -50.9033 316° Northwest  Level Estimated
09:33PM -12.5978 -50.9893 316° Northwest  Level Estimated
09:34PM -12.5107 -51.0751 316° Northwest  Level Estimated
09:35PM -12.4236 -51.1609 316° Northwest  Level Estimated
09:36PM -12.3365 -51.2466 316° Northwest  Level Estimated
09:37PM -12.2494 -51.3323 316° Northwest  Level Estimated
09:37PM -11.9310 -51.1260 316° Northwest 435 501 36,000  Level FlightAware
09:38PM -12.1622 -51.4179 316° Northwest  Level Estimated
09:38PM -11.8800 -51.1700 320° Northwest 435 501 36,000  Level FlightAware
09:39PM -11.7320 -51.2900 322° Northwest 434 499 36,000  Level FlightAware
09:39PM -11.6790 -51.3350 320° Northwest 434 499 36,000 -300 Level FlightAware
09:40PM -11.7320 -51.2900 140° Southeast 36,000 -300 Level FlightAware
09:43PM -11.5164 -51.5148 314° West  Level Estimated
09:44PM -11.4318 -51.6029 314° West  Level Estimated
09:45PM -11.3472 -51.6909 314° West  Level Estimated
09:46PM -11.2626 -51.7788 314° West  Level Estimated
09:47PM -11.1779 -51.8667 314° West  Level Estimated
09:48PM -11.0932 -51.9546 314° West  Level Estimated
09:49PM -11.0085 -52.0424 315° West  Level Estimated
09:50PM -10.9237 -52.1301 315° West  Level Estimated
09:51PM -10.8390 -52.2178 315° West  Level Estimated
09:52PM -10.7542 -52.3055 315° West  Level Estimated
09:53PM -10.6693 -52.3931 315° West  Level Estimated
09:54PM -10.5845 -52.4807 315° West  Level Estimated
09:55PM -10.4996 -52.5682 315° West  Level Estimated
09:56PM -10.4148 -52.6556 315° West  Level Estimated
09:57PM -10.3298 -52.7430 315° West  Level Estimated
09:58PM -10.2449 -52.8304 315° West  Level Estimated
09:59PM -10.1599 -52.9177 315° West  Level Estimated
10:00PM -10.0749 -53.0050 315° West  Level Estimated
10:01PM -9.9899 -53.0922 315° West  Level Estimated
10:02PM -9.9049 -53.1794 315° West  Level Estimated
10:03PM -9.8198 -53.2665 315° West  Level Estimated
10:04PM -9.7348 -53.3536 315° West  Level Estimated
10:05PM -9.6497 -53.4407 315° West  Level Estimated
10:06PM -9.5646 -53.5277 315° West  Level Estimated
10:07PM -9.4794 -53.6146 315° West  Level Estimated
10:08PM -9.3942 -53.7015 315° West  Level Estimated
10:09PM -9.3091 -53.7884 315° West  Level Estimated
10:10PM -9.2239 -53.8752 315° West  Level Estimated
10:11PM -9.1386 -53.9620 315° West  Level Estimated
10:12PM -9.0534 -54.0488 315° West  Level Estimated
10:13PM -8.9681 -54.1355 315° West  Level Estimated
10:14PM -8.8828 -54.2221 315° West  Level Estimated
10:15PM -8.7975 -54.3088 315° West  Level Estimated
10:16PM -8.7122 -54.3954 315° West  Level Estimated
10:17PM -8.6268 -54.4819 315° West  Level Estimated
10:18PM -8.5415 -54.5684 315° West  Level Estimated
10:19PM -8.4561 -54.6549 315° West  Level Estimated
10:20PM -8.3707 -54.7413 315° West  Level Estimated
10:21PM -8.2853 -54.8277 315° West  Level Estimated
10:22PM -8.1998 -54.9140 315° West  Level Estimated
10:23PM -8.1144 -55.0004 315° West  Level Estimated
10:24PM -8.0289 -55.0866 315° West  Level Estimated
10:25PM -7.9434 -55.1729 315° West  Level Estimated
10:26PM -7.8579 -55.2591 315° West  Level Estimated
10:27PM -7.7723 -55.3453 315° West  Level Estimated
10:28PM -7.6868 -55.4314 315° West  Level Estimated
10:29PM -7.6012 -55.5175 315° West  Level Estimated
10:30PM -7.5156 -55.6036 315° West  Level Estimated
10:31PM -7.4300 -55.6896 315° West  Level Estimated
10:32PM -7.3444 -55.7756 315° West  Level Estimated
10:33PM -7.2588 -55.8616 315° West  Level Estimated
10:34PM -7.1732 -55.9475 315° West  Level Estimated
10:35PM -7.0875 -56.0334 315° West  Level Estimated
10:36PM -7.0018 -56.1193 315° West  Level Estimated
10:37PM -6.9161 -56.2051 315° West  Level Estimated
10:38PM -6.8304 -56.2909 315° West  Level Estimated
10:39PM -6.7447 -56.3767 315° West  Level Estimated
10:40PM -6.6589 -56.4624 315° West  Level Estimated
10:41PM -6.5732 -56.5482 315° West  Level Estimated
10:42PM -6.4874 -56.6339 315° West  Level Estimated
10:43PM -6.4016 -56.7195 315° West  Level Estimated
10:44PM -6.3158 -56.8051 315° West  Level Estimated
10:45PM -6.2300 -56.8908 315° West  Level Estimated
10:46PM -6.1442 -56.9763 315° West  Level Estimated
10:47PM -6.0583 -57.0619 315° West  Level Estimated
10:48PM -5.9725 -57.1474 315° West  Level Estimated
10:49PM -5.8866 -57.2329 315° West  Level Estimated
10:50PM -5.8007 -57.3183 315° West  Level Estimated
10:51PM -5.7148 -57.4038 315° West  Level Estimated
10:52PM -5.6289 -57.4892 315° West  Level Estimated
10:53PM -5.5430 -57.5746 315° West  Level Estimated
10:54PM -5.4571 -57.6599 315° West  Level Estimated
10:55PM -5.3712 -57.7453 315° West  Level Estimated
10:56PM -5.2852 -57.8306 315° West  Level Estimated
10:57PM -5.1992 -57.9159 315° West  Level Estimated
10:58PM -5.1132 -58.0011 315° West  Level Estimated
10:59PM -5.0273 -58.0864 315° West  Level Estimated
11:00PM -4.9413 -58.1716 315° West  Level Estimated
11:01PM -4.8552 -58.2568 315° West  Level Estimated
11:02PM -4.7692 -58.3420 315° West  Level Estimated
11:03PM -4.6832 -58.4271 315° West  Level Estimated
11:04PM -4.5972 -58.5123 315° West  Level Estimated
11:05PM -4.5111 -58.5974 315° West  Level Estimated
11:06PM -4.4250 -58.6825 315° West  Level Estimated
11:07PM -4.3390 -58.7676 315° West  Level Estimated
11:08PM -4.2529 -58.8526 315° West  Level Estimated
11:09PM -4.1668 -58.9377 315° West  Level Estimated
11:10PM -4.0807 -59.0227 315° West  Level Estimated
11:11PM -3.9946 -59.1077 315° West  Level Estimated
11:12PM -3.9085 -59.1927 315° West  Level Estimated
11:13PM -3.8224 -59.2776 315° West  Level Estimated
11:14PM -3.7362 -59.3626 315° West  Level Estimated
11:15PM -3.6501 -59.4475 315° West  Level Estimated
11:16PM -3.5639 -59.5324 315° West  Level Estimated
11:17PM -3.4778 -59.6173 315° West  Level Estimated
11:18PM -3.3916 -59.7022 315° West  Level Estimated
11:19PM -3.3054 -59.7871 315° West  Level Estimated
11:20PM -3.2192 -59.8719 315° West  Level Estimated
11:20PM -3.3370 -59.6930 315° West 283 326 8,800  Level FlightAware
11:20PM -3.3320 -59.7030 297° West 281 323 8,700 -960 Descending FlightAware
11:20PM -3.3150 -59.7360 297° West 278 320 8,200 -1,140 Descending FlightAware
11:21PM -3.2960 -59.7740 297° West 274 315 7,600 -1,080 Descending FlightAware
11:21PM -3.2860 -59.7950 295° West 274 315 7,300 -1,020 Descending FlightAware
11:21PM -3.2690 -59.8280 297° West 273 314 6,800 -960 Descending FlightAware
11:22PM -3.2600 -59.8460 297° West 272 313 6,600 -960 Descending FlightAware
11:22PM -3.2440 -59.8780 297° West 271 312 6,100 -1,080 Descending FlightAware
11:23PM -3.2280 -59.9090 297° West 271 312 5,600 -1,020 Descending FlightAware
11:23PM -3.2240 -59.9180 294° West 271 312 5,500 -900 Descending FlightAware
11:23PM -3.2090 -59.9470 297° West 268 308 5,100 -1,020 Descending FlightAware
11:24PM -3.1940 -59.9780 296° West 263 303 4,600 -1,140 Descending FlightAware
11:24PM -3.1850 -59.9940 299° West 262 302 4,300 -1,080 Descending FlightAware
11:24PM -3.1720 -60.0210 296° West 258 297 3,900 -960 Descending FlightAware
11:25PM -3.1580 -60.0480 297° West 254 292 3,500 -900 Descending FlightAware
11:25PM -3.1420 -60.0800 297° West 256 295 3,100 -960 Descending FlightAware
11:26PM -3.1270 -60.1090 297° West 250 288 2,600 -960 Descending FlightAware
11:26PM -3.1190 -60.1250 297° West 245 282 2,400 -840 Descending FlightAware
11:27PM -3.1050 -60.1550 295° West 241 277 2,000 -540 Descending FlightAware
11:27PM -3.0910 -60.1810 298° West 218 251 1,900 -180 Descending FlightAware
11:27PM -3.0840 -60.1910 305° West 211 243 1,900  Level FlightAware
11:27PM -3.0690 -60.1950 345° North 209 241 1,900  Level FlightAware
11:28PM -3.0450 -60.1820 28° Northeast 200 230 1,900  Level FlightAware
11:28PM -3.0390 -60.1750 49° Northeast 183 211 1,900  Level FlightAware
11:28PM -3.0380 -60.1670 83° East 167 192 1,900 -480 Level FlightAware
11:29PM -3.0380 -60.1350 90° East 153 176 1,500 -660 Descending FlightAware
11:30PM -3.0380 -60.1130 90° East 152 175 1,100 -780 Descending FlightAware
11:30PM -3.0390 -60.0940 93° East 152 175 800 -840 Descending FlightAware
11:30PM -3.0390 -60.0850 90° East 151 174 600 -420 Descending FlightAware
11:31PM -3.0380 -60.0630 87° East 150 173 500 -180 Descending FlightAware
11:33PM -3.0360 -60.0400 85° East 17 20 -240 Descending FlightAware
11:34PM -3.0360 -60.0420 270° West 28 32  Level FlightAware
11:34PM -3.0340 -60.0450 304° West 28 32  Level FlightAware
11:34PM -3.0330 -60.0440 45° Northeast 28 32  Level FlightAware
11:35PM -3.0320 -60.0460 297° West 28 32  Level FlightAware
11:38PM -3.0386 -60.0497 209° Southwest  Level Estimated